Time;durP1;ratioP1;P1;durP2;ratioP2;P2;SDS_P1;SDS_P2;PMS_P1;PMS_P2;Temp;Humidity;BMP_temperature;BMP_pressure;BME280_temperature;BME280_humidity;BME280_pressure;Samples;Min_cycle;Max_cycle;Signal;HPM_P1;HPM_P2
2023/08/30 00:03:13;;;;;;;22.90;15.70;;;;;;;13.11;100.00;100740.03;10379398;28;20044;-68
2023/08/30 00:08:18;;;;;;;23.70;16.13;;;;;;;12.99;100.00;100734.75;10353521;28;20077;-67
2023/08/30 00:13:19;;;;;;;25.80;18.00;;;;;;;12.87;100.00;100726.72;10377674;28;20033;-68
2023/08/30 00:18:19;;;;;;;26.95;17.45;;;;;;;12.78;100.00;100730.31;10402987;28;20076;-68
2023/08/30 00:23:20;;;;;;;22.85;16.00;;;;;;;12.67;100.00;100724.75;10360835;28;20034;-67
2023/08/30 00:28:20;;;;;;;26.88;18.13;;;;;;;12.61;100.00;100720.31;10369326;28;20049;-69
2023/08/30 00:33:21;;;;;;;29.80;19.33;;;;;;;12.56;100.00;100719.47;10380004;28;20044;-68
2023/08/30 00:38:21;;;;;;;31.77;19.17;;;;;;;12.51;100.00;100721.09;10376772;28;20410;-68
2023/08/30 00:43:22;;;;;;;33.00;21.95;;;;;;;12.48;100.00;100729.09;10378784;28;20119;-67
2023/08/30 00:48:22;;;;;;;30.90;19.60;;;;;;;12.44;100.00;100720.53;10378284;28;20038;-68
2023/08/30 00:53:22;;;;;;;26.40;18.83;;;;;;;12.38;100.00;100710.56;10378107;28;20057;-69
2023/08/30 00:58:26;;;;;;;32.83;21.38;;;;;;;12.34;100.00;100714.13;10379147;28;20038;-68
2023/08/30 01:03:26;;;;;;;33.00;18.98;;;;;;;12.28;100.00;100711.34;10439191;28;20448;-68
2023/08/30 01:08:27;;;;;;;33.08;19.92;;;;;;;12.13;100.00;100691.97;10431774;28;20037;-68
2023/08/30 01:13:30;;;;;;;32.95;21.10;;;;;;;12.24;100.00;100707.47;10424804;28;20040;-68
2023/08/30 01:18:32;;;;;;;30.02;19.08;;;;;;;12.19;100.00;100701.91;10419935;28;20390;-68
2023/08/30 01:23:52;;;;;;;34.85;21.73;;;;;;;12.14;100.00;100703.84;10433264;28;20055;-68
2023/08/30 01:28:52;;;;;;;32.47;22.70;;;;;;;12.13;100.00;100697.47;10441163;28;20234;-68
2023/08/30 01:33:53;;;;;;;38.50;23.25;;;;;;;12.09;100.00;100701.88;10438018;28;20029;-68
2023/08/30 01:38:53;;;;;;;38.65;22.17;;;;;;;12.09;100.00;100699.97;10433213;28;20029;-68
2023/08/30 01:43:54;;;;;;;37.10;22.23;;;;;;;12.11;100.00;100696.91;10421189;28;20025;-68
2023/08/30 01:48:54;;;;;;;37.15;22.77;;;;;;;11.95;100.00;100685.00;10439359;28;20048;-68
2023/08/30 01:53:56;;;;;;;35.58;22.55;;;;;;;11.93;100.00;100686.34;10431626;28;20033;-68
2023/08/30 01:58:56;;;;;;;38.47;23.08;;;;;;;11.86;100.00;100681.03;10423383;28;20037;-69
2023/08/30 02:03:58;;;;;;;39.03;22.23;;;;;;;11.81;100.00;100687.38;10431959;28;20065;-68
2023/08/30 02:09:03;;;;;;;35.78;21.83;;;;;;;11.78;100.00;100685.16;10423179;28;20132;-68
2023/08/30 02:14:06;;;;;;;34.08;23.15;;;;;;;11.75;100.00;100685.69;10437884;28;20044;-68
2023/08/30 02:19:07;;;;;;;34.08;22.48;;;;;;;11.67;100.00;100684.25;10415389;28;20400;-68
2023/08/30 02:24:08;;;;;;;37.97;22.52;;;;;;;11.61;100.00;100684.47;10420128;28;20079;-68
2023/08/30 02:29:09;;;;;;;33.83;21.45;;;;;;;11.47;100.00;100668.41;10432961;28;20101;-68
2023/08/30 02:34:10;;;;;;;36.47;22.05;;;;;;;11.47;100.00;100678.59;10436567;28;20041;-68
2023/08/30 02:39:11;;;;;;;37.67;22.67;;;;;;;11.34;100.00;100662.53;10437164;28;20046;-68
2023/08/30 02:44:12;;;;;;;41.30;23.25;;;;;;;11.32;100.00;100669.13;10438709;28;20041;-68
2023/08/30 02:49:12;;;;;;;37.50;21.13;;;;;;;11.21;100.00;100661.88;10434610;28;20102;-69
2023/08/30 02:54:13;;;;;;;34.83;22.02;;;;;;;11.09;100.00;100651.03;10436194;28;20037;-68
2023/08/30 02:59:13;;;;;;;38.20;23.17;;;;;;;11.13;100.00;100665.13;10416872;28;20037;-68
2023/08/30 03:04:14;;;;;;;34.65;20.58;;;;;;;11.06;100.00;100650.75;10413618;28;20037;-69
2023/08/30 03:09:14;;;;;;;37.13;20.65;;;;;;;10.98;100.00;100649.31;10435416;28;20072;-68
2023/08/30 03:14:16;;;;;;;37.55;22.75;;;;;;;10.98;100.00;100654.00;10423059;28;20500;-69
2023/08/30 03:19:17;;;;;;;36.55;20.45;;;;;;;10.95;100.00;100649.81;10430691;28;20113;-68
2023/08/30 03:24:18;;;;;;;36.80;21.33;;;;;;;10.85;100.00;100644.22;10433530;28;20131;-69
2023/08/30 03:29:18;;;;;;;36.45;20.58;;;;;;;10.82;100.00;100644.75;10400856;28;20077;-69
2023/08/30 03:34:19;;;;;;;35.38;20.63;;;;;;;10.74;100.00;100634.22;10433244;28;20088;-68
2023/08/30 03:39:20;;;;;;;33.85;20.88;;;;;;;10.69;100.00;100630.31;10429500;28;20041;-68
2023/08/30 03:44:21;;;;;;;37.78;19.48;;;;;;;10.64;100.00;100621.16;10417870;28;20049;-68
2023/08/30 03:49:21;;;;;;;34.50;19.75;;;;;;;10.59;100.00;100624.72;10431787;28;20060;-68
2023/08/30 03:54:21;;;;;;;33.42;18.42;;;;;;;10.52;100.00;100606.75;10416846;28;20543;-69
2023/08/30 03:59:22;;;;;;;31.00;19.35;;;;;;;10.46;100.00;100636.16;10432387;28;20470;-69
2023/08/30 04:04:23;;;;;;;35.92;19.83;;;;;;;10.41;100.00;100597.56;10438805;28;20520;-67
2023/08/30 04:09:23;;;;;;;29.58;19.05;;;;;;;10.35;100.00;100602.16;10421674;28;20049;-68
2023/08/30 04:14:24;;;;;;;30.65;18.60;;;;;;;10.33;100.00;100592.53;10425673;28;20029;-68
2023/08/30 04:19:24;;;;;;;30.83;18.52;;;;;;;10.36;100.00;100589.25;10429068;28;20061;-68
2023/08/30 04:24:26;;;;;;;30.42;17.70;;;;;;;10.28;100.00;100574.84;10443211;28;20128;-68
2023/08/30 04:29:26;;;;;;;33.88;18.73;;;;;;;10.21;100.00;100585.22;10442090;28;20520;-68
2023/08/30 04:34:27;;;;;;;30.08;16.95;;;;;;;10.17;100.00;100577.72;10436131;28;20041;-67
2023/08/30 04:39:28;;;;;;;27.92;17.67;;;;;;;10.15;100.00;100580.75;10443150;28;20037;-68
2023/08/30 04:44:28;;;;;;;27.92;18.15;;;;;;;10.12;100.00;100574.94;10436958;28;20566;-68
2023/08/30 04:49:29;;;;;;;25.65;16.90;;;;;;;10.02;100.00;100554.47;10420742;28;20065;-69
2023/08/30 04:54:29;;;;;;;27.35;16.27;;;;;;;10.11;100.00;100574.13;10438598;28;20037;-68
2023/08/30 04:59:30;;;;;;;28.90;16.75;;;;;;;10.13;100.00;100563.69;10439584;28;20048;-68
2023/08/30 05:04:30;;;;;;;28.73;16.98;;;;;;;10.18;100.00;100562.91;10416451;28;20037;-67
2023/08/30 05:09:32;;;;;;;28.85;17.35;;;;;;;10.18;100.00;100562.91;10441659;28;20037;-68
2023/08/30 05:14:32;;;;;;;30.75;18.27;;;;;;;10.18;100.00;100551.91;10421963;28;20175;-67
2023/08/30 05:19:33;;;;;;;29.00;17.00;;;;;;;10.24;100.00;100553.63;10433435;28;20103;-67
2023/08/30 05:24:33;;;;;;;30.08;17.90;;;;;;;10.32;100.00;100560.59;10416654;28;20048;-68
2023/08/30 05:29:34;;;;;;;30.67;18.65;;;;;;;10.46;100.00;100548.09;10439666;28;20052;-68
2023/08/30 05:34:34;;;;;;;33.03;19.25;;;;;;;10.68;100.00;100540.53;10433987;28;20045;-67
2023/08/30 05:39:35;;;;;;;31.10;18.77;;;;;;;10.90;100.00;100536.84;10441563;28;20037;-68
2023/08/30 05:44:35;;;;;;;30.30;19.50;;;;;;;11.13;100.00;100530.13;10432956;28;20493;-69
2023/08/30 05:49:36;;;;;;;28.73;17.83;;;;;;;11.31;100.00;100520.59;10432897;28;20404;-66
2023/08/30 05:54:36;;;;;;;29.77;16.65;;;;;;;11.47;100.00;100527.81;10435093;28;22938;-68
2023/08/30 05:59:37;;;;;;;22.48;14.48;;;;;;;11.57;100.00;100527.03;10419605;28;20041;-67
2023/08/30 06:04:37;;;;;;;21.48;14.73;;;;;;;11.77;100.00;100523.50;10436566;28;20053;-69
2023/08/30 06:09:38;;;;;;;21.40;15.00;;;;;;;11.94;100.00;100522.50;10436005;28;20062;-68
2023/08/30 06:14:38;;;;;;;19.88;13.18;;;;;;;12.08;100.00;100513.41;10430571;28;20041;-68
2023/08/30 06:19:39;;;;;;;23.63;12.60;;;;;;;12.32;100.00;100512.91;10436888;28;20041;-68
2023/08/30 06:24:39;;;;;;;20.30;13.63;;;;;;;12.45;100.00;100504.06;10433201;28;20504;-69
2023/08/30 06:29:40;;;;;;;19.80;11.88;;;;;;;12.64;100.00;100507.09;10432063;28;20469;-69
2023/08/30 06:34:40;;;;;;;25.00;11.55;;;;;;;12.82;100.00;100502.13;10421794;28;20037;-68
2023/08/30 06:39:41;;;;;;;18.88;11.93;;;;;;;12.94;100.00;100502.66;10434067;28;20047;-68
2023/08/30 06:44:41;;;;;;;19.75;11.23;;;;;;;13.10;100.00;100497.91;10430487;28;20045;-69
2023/08/30 06:49:42;;;;;;;15.95;10.68;;;;;;;13.21;100.00;100502.31;10431473;28;20044;-68
2023/08/30 06:54:42;;;;;;;16.05;11.13;;;;;;;13.34;100.00;100500.09;10436756;28;20408;-68
2023/08/30 06:59:42;;;;;;;13.88;9.80;;;;;;;13.50;100.00;100499.75;10431756;28;20049;-68
2023/08/30 07:04:43;;;;;;;13.23;8.82;;;;;;;13.62;100.00;100504.09;10417278;28;20044;-68
2023/08/30 07:09:43;;;;;;;18.30;10.02;;;;;;;13.81;100.00;100494.06;10436690;28;20099;-67
2023/08/30 07:14:44;;;;;;;17.65;9.38;;;;;;;13.89;100.00;100492.63;10425587;28;20041;-68
2023/08/30 07:19:44;;;;;;;18.63;8.80;;;;;;;14.05;100.00;100493.34;10413370;28;20041;-68
2023/08/30 07:24:45;;;;;;;15.40;8.95;;;;;;;14.16;100.00;100483.88;10420856;28;21229;-68
2023/08/30 07:29:45;;;;;;;13.98;8.90;;;;;;;14.22;100.00;100477.19;10419952;28;20072;-69
2023/08/30 07:34:46;;;;;;;12.27;8.60;;;;;;;14.49;100.00;100467.53;10418216;28;20049;-70
2023/08/30 07:39:46;;;;;;;14.55;7.93;;;;;;;14.61;100.00;100467.19;10367001;28;20033;-68
2023/08/30 07:44:47;;;;;;;11.73;7.78;;;;;;;14.72;100.00;100468.75;10379820;28;20038;-69
2023/08/30 07:49:47;;;;;;;14.85;8.52;;;;;;;14.57;100.00;100443.97;10414891;28;20099;-69
2023/08/30 07:54:47;;;;;;;13.77;8.65;;;;;;;14.99;100.00;100472.94;10418742;28;20037;-68
2023/08/30 07:59:48;;;;;;;12.77;8.15;;;;;;;15.30;100.00;100481.72;10400500;28;20048;-68
2023/08/30 08:04:49;;;;;;;13.52;8.63;;;;;;;15.61;100.00;100479.38;10418298;28;20039;-69
2023/08/30 08:09:50;;;;;;;16.23;9.50;;;;;;;15.71;100.00;100486.75;10408149;28;20037;-68
2023/08/30 08:14:51;;;;;;;12.63;8.95;;;;;;;15.61;100.00;100467.47;10416244;28;20401;-69
2023/08/30 08:19:51;;;;;;;14.32;9.05;;;;;;;15.67;100.00;100480.16;10407216;28;20033;-68
2023/08/30 08:24:53;;;;;;;14.50;8.18;;;;;;;15.68;100.00;100490.09;10423604;28;20389;-69
2023/08/30 08:29:54;;;;;;;11.70;7.93;;;;;;;15.76;100.00;100483.91;10422628;28;20041;-68
2023/08/30 08:34:54;;;;;;;13.45;9.00;;;;;;;15.86;100.00;100471.84;10440815;28;20470;-68
2023/08/30 08:39:55;;;;;;;12.98;8.68;;;;;;;16.09;100.00;100475.69;10440638;28;20041;-67
2023/08/30 08:44:55;;;;;;;14.32;8.95;;;;;;;16.27;100.00;100471.25;10429516;28;20817;-69
2023/08/30 08:49:56;;;;;;;16.23;9.18;;;;;;;16.44;100.00;100479.00;10392655;28;20145;-68
2023/08/30 08:54:56;;;;;;;13.75;9.45;;;;;;;16.50;100.00;100473.06;10394015;28;20061;-69
2023/08/30 08:59:57;;;;;;;16.55;10.10;;;;;;;16.64;100.00;100473.13;10407909;28;20057;-68
2023/08/30 09:04:58;;;;;;;13.18;8.95;;;;;;;16.66;100.00;100464.44;10417895;28;20048;-68
2023/08/30 09:09:59;;;;;;;15.63;10.45;;;;;;;17.00;100.00;100464.13;10383749;28;20037;-68
2023/08/30 09:14:59;;;;;;;15.25;9.35;;;;;;;17.28;100.00;100453.84;10388024;28;20431;-68
2023/08/30 09:20:10;;;;;;;14.90;10.13;;;;;;;17.47;100.00;100450.94;10410102;28;20041;-69
2023/08/30 09:25:11;;;;;;;17.38;9.77;;;;;;;17.57;100.00;100461.03;10410070;28;20038;-70
2023/08/30 09:30:12;;;;;;;11.15;7.70;;;;;;;17.66;100.00;100463.91;10437626;28;20040;-68
2023/08/30 09:35:13;;;;;;;13.93;8.73;;;;;;;18.00;100.00;100459.81;10438002;28;20116;-68
2023/08/30 09:40:18;;;;;;;16.20;9.07;;;;;;;18.01;100.00;100441.97;10418906;28;20037;-69
2023/08/30 09:45:19;;;;;;;14.77;9.27;;;;;;;17.79;100.00;100432.41;10405970;28;20037;-70
2023/08/30 09:50:20;;;;;;;12.50;8.10;;;;;;;17.67;100.00;100440.47;10401138;28;20041;-69
2023/08/30 09:55:21;;;;;;;13.27;7.82;;;;;;;17.50;100.00;100438.34;10395332;28;20064;-68
2023/08/30 10:00:21;;;;;;;14.68;7.82;;;;;;;17.38;100.00;100435.28;10419488;28;20052;-68
2023/08/30 10:05:22;;;;;;;13.02;8.05;;;;;;;17.07;100.00;100431.16;10414571;28;20045;-67
2023/08/30 10:10:23;;;;;;;14.35;8.50;;;;;;;16.79;100.00;100440.59;10431654;28;20044;-68
2023/08/30 10:15:23;;;;;;;14.45;8.38;;;;;;;16.45;100.00;100430.63;10421254;28;20197;-69
2023/08/30 10:20:24;;;;;;;12.10;8.48;;;;;;;16.33;100.00;100439.47;10383979;28;20060;-67
2023/08/30 10:25:28;;;;;;;11.05;6.95;;;;;;;16.31;100.00;100450.06;10388301;28;20045;-68
2023/08/30 10:30:28;;;;;;;14.90;8.07;;;;;;;16.23;100.00;100457.13;10378537;28;20061;-67
2023/08/30 10:35:29;;;;;;;11.98;7.55;;;;;;;15.89;100.00;100435.97;10372913;28;20041;-67
2023/08/30 10:40:29;;;;;;;12.73;7.43;;;;;;;15.81;100.00;100444.97;10396281;28;20049;-67
2023/08/30 10:45:30;;;;;;;15.43;8.95;;;;;;;15.81;100.00;100433.88;10405062;28;20041;-67
2023/08/30 10:50:31;;;;;;;13.40;7.50;;;;;;;15.98;100.00;100438.91;10401951;28;20100;-68
2023/08/30 10:55:32;;;;;;;11.65;7.57;;;;;;;16.57;100.00;100439.31;10431671;28;20049;-67
2023/08/30 11:00:33;;;;;;;12.23;7.60;;;;;;;16.97;100.00;100428.63;10435793;28;20133;-67
2023/08/30 11:05:34;;;;;;;11.90;7.97;;;;;;;17.28;100.00;100426.03;10417552;28;20041;-67
2023/08/30 11:10:34;;;;;;;11.13;7.32;;;;;;;16.94;100.00;100409.75;10431383;28;20056;-68
2023/08/30 11:15:35;;;;;;;12.82;8.10;;;;;;;17.04;100.00;100405.94;10420979;28;20046;-68
2023/08/30 11:20:35;;;;;;;12.52;7.78;;;;;;;17.20;100.00;100409.22;10417893;28;20530;-69
2023/08/30 11:25:36;;;;;;;10.18;7.85;;;;;;;17.46;100.00;100410.31;10396220;28;20044;-68
2023/08/30 11:30:40;;;;;;;11.93;6.80;;;;;;;17.51;100.00;100379.59;10422800;28;20052;-67
2023/08/30 11:35:40;;;;;;;8.90;6.00;;;;;;;17.52;100.00;100380.44;10410634;28;20037;-69
2023/08/30 11:40:41;;;;;;;9.35;6.55;;;;;;;17.62;100.00;100387.72;10429564;28;20045;-68
2023/08/30 11:45:41;;;;;;;10.52;6.45;;;;;;;17.49;100.00;100373.53;10439003;28;20052;-69
2023/08/30 11:50:42;;;;;;;8.05;5.88;;;;;;;17.32;100.00;100382.53;10420382;28;20095;-67
2023/08/30 11:55:42;;;;;;;10.68;6.10;;;;;;;16.80;100.00;100389.41;10405427;28;20041;-68
2023/08/30 12:00:43;;;;;;;8.45;5.60;;;;;;;16.41;100.00;100365.69;10408042;28;20057;-68
2023/08/30 12:05:47;;;;;;;12.45;7.03;;;;;;;16.45;100.00;100398.13;10403147;28;20044;-69
2023/08/30 12:10:47;;;;;;;12.20;8.02;;;;;;;16.15;100.00;100405.03;10379678;28;20103;-69
2023/08/30 12:15:48;;;;;;;10.95;7.07;;;;;;;16.08;100.00;100407.38;10376424;28;20092;-68
2023/08/30 12:20:58;;;;;;;10.98;7.88;;;;;;;16.00;100.00;100388.63;10377147;28;20040;-68
2023/08/30 12:26:05;;;;;;;13.63;8.30;;;;;;;15.94;100.00;100385.94;10410183;28;20038;-68
2023/08/30 12:31:06;;;;;;;10.82;7.72;;;;;;;15.89;100.00;100369.34;10421761;28;20096;-68
2023/08/30 12:36:07;;;;;;;12.25;8.50;;;;;;;15.90;100.00;100372.97;10360753;28;20112;-69
2023/08/30 12:41:07;;;;;;;12.45;7.97;;;;;;;15.78;100.00;100367.06;10376256;28;20046;-68
2023/08/30 12:46:08;;;;;;;12.07;7.93;;;;;;;15.77;100.00;100374.53;10376231;28;20033;-68
2023/08/30 12:51:08;;;;;;;10.90;7.25;;;;;;;15.67;100.00;100364.41;10376024;28;20087;-68
2023/08/30 12:56:09;;;;;;;11.80;8.27;;;;;;;15.48;100.00;100358.88;10362595;28;20050;-68
2023/08/30 13:01:09;;;;;;;14.50;8.43;;;;;;;15.48;100.00;100363.56;10360608;28;20038;-68
2023/08/30 13:06:09;;;;;;;14.00;8.70;;;;;;;15.56;100.00;100348.22;10365712;28;20045;-67
2023/08/30 13:11:10;;;;;;;14.93;9.80;;;;;;;15.71;100.00;100342.44;10390703;28;20046;-68
2023/08/30 13:16:10;;;;;;;16.48;9.95;;;;;;;15.90;100.00;100343.25;10426047;28;20050;-66
2023/08/30 13:21:11;;;;;;;12.25;9.07;;;;;;;16.24;100.00;100344.88;10421106;28;20030;-67
2023/08/30 13:26:11;;;;;;;13.40;8.98;;;;;;;16.22;100.00;100343.53;10418472;28;20041;-68
2023/08/30 13:31:12;;;;;;;10.85;8.98;;;;;;;15.67;100.00;100261.75;10434325;28;20052;-68
2023/08/30 13:36:12;;;;;;;13.23;9.90;;;;;;;16.23;100.00;100346.03;10428981;28;20417;-68
2023/08/30 13:41:13;;;;;;;14.07;10.20;;;;;;;16.05;100.00;100330.25;10420396;28;20543;-68
2023/08/30 13:46:13;;;;;;;14.38;10.40;;;;;;;15.99;100.00;100328.69;10411257;28;20044;-68
2023/08/30 13:51:14;;;;;;;13.10;9.52;;;;;;;15.74;100.00;100333.53;10405837;28;20053;-68
2023/08/30 13:56:14;;;;;;;14.13;9.93;;;;;;;15.82;100.00;100335.63;10425235;28;20097;-67
2023/08/30 14:01:15;;;;;;;16.02;10.88;;;;;;;15.81;100.00;100327.59;10422661;28;20040;-68
2023/08/30 14:06:15;;;;;;;14.15;10.30;;;;;;;15.94;100.00;100326.81;10405737;28;20099;-69
2023/08/30 14:11:16;;;;;;;12.13;8.60;;;;;;;15.97;100.00;100320.66;10403496;28;20049;-69
2023/08/30 14:16:16;;;;;;;14.05;9.00;;;;;;;15.71;100.00;100245.31;10408883;28;20083;-68
2023/08/30 14:21:17;;;;;;;11.45;8.75;;;;;;;16.28;100.00;100304.25;10406653;28;20037;-69
2023/08/30 14:26:17;;;;;;;11.50;8.45;;;;;;;16.28;100.00;100317.31;10430191;28;20038;-69
2023/08/30 14:31:18;;;;;;;11.23;8.07;;;;;;;15.99;100.00;100317.56;10441925;28;20060;-69
2023/08/30 14:36:18;;;;;;;10.70;8.15;;;;;;;15.72;100.00;100319.94;10436817;28;20052;-71
2023/08/30 14:41:19;;;;;;;11.90;8.75;;;;;;;15.54;100.00;100320.75;10433445;28;20043;-70
2023/08/30 14:46:19;;;;;;;11.35;8.05;;;;;;;15.34;100.00;100319.13;10417706;28;20044;-68
2023/08/30 14:51:20;;;;;;;8.13;6.30;;;;;;;15.21;100.00;100308.78;10412847;28;20486;-70
2023/08/30 14:56:20;;;;;;;9.63;7.38;;;;;;;15.16;100.00;100315.22;10413411;28;20733;-70
2023/08/30 15:01:21;;;;;;;12.10;7.90;;;;;;;14.75;100.00;100318.53;10430253;28;20040;-69
2023/08/30 15:06:23;;;;;;;12.13;7.35;;;;;;;14.47;100.00;100315.50;10411957;28;20052;-70
2023/08/30 15:11:23;;;;;;;7.80;4.63;;;;;;;14.31;100.00;100358.31;10428441;28;20038;-70
2023/08/30 15:16:24;;;;;;;7.15;3.53;;;;;;;13.93;100.00;100360.88;10411147;28;20041;-68
2023/08/30 15:21:24;;;;;;;7.60;3.50;;;;;;;13.84;100.00;100348.78;10431157;28;20045;-68
2023/08/30 15:26:25;;;;;;;6.40;3.70;;;;;;;13.93;100.00;100338.72;10432003;28;20042;-70
2023/08/30 15:31:25;;;;;;;6.90;3.92;;;;;;;14.04;100.00;100339.47;10438341;28;20041;-71
2023/08/30 15:36:26;;;;;;;7.88;5.20;;;;;;;14.08;100.00;100343.31;10413736;28;20330;-72
2023/08/30 15:41:26;;;;;;;8.85;5.65;;;;;;;14.31;100.00;100334.22;10409633;28;21102;-70
2023/08/30 15:46:27;;;;;;;7.05;4.25;;;;;;;14.72;100.00;100353.19;10413163;28;20493;-70
2023/08/30 15:51:27;;;;;;;6.15;3.33;;;;;;;14.83;100.00;100353.09;10433672;28;20037;-70
2023/08/30 15:56:28;;;;;;;5.20;3.40;;;;;;;14.81;100.00;100358.09;10433194;28;20033;-70
2023/08/30 16:01:28;;;;;;;4.32;2.63;;;;;;;14.88;100.00;100350.22;10439609;28;20052;-70
2023/08/30 16:06:29;;;;;;;2.97;1.90;;;;;;;14.80;100.00;100353.66;10426533;28;20048;-71
2023/08/30 16:11:29;;;;;;;2.28;1.70;;;;;;;14.76;100.00;100336.81;10420313;28;20057;-71
2023/08/30 16:16:30;;;;;;;2.90;1.90;;;;;;;14.94;100.00;100360.13;10427861;28;20030;-70
2023/08/30 16:21:31;;;;;;;2.90;2.20;;;;;;;15.06;100.00;100368.84;10427641;28;20037;-70
2023/08/30 16:26:32;;;;;;;4.07;1.70;;;;;;;15.00;100.00;100375.59;10429511;28;20092;-70
2023/08/30 16:31:33;;;;;;;3.75;2.45;;;;;;;14.90;100.00;100382.09;10441377;28;20053;-70
2023/08/30 16:36:34;;;;;;;4.72;2.42;;;;;;;14.80;100.00;100384.13;10441284;28;20475;-70
2023/08/30 16:41:34;;;;;;;6.10;3.15;;;;;;;14.80;100.00;100389.69;10443491;28;20049;-71
2023/08/30 16:46:36;;;;;;;6.07;4.07;;;;;;;14.89;100.00;100387.94;10435843;28;21596;-70
2023/08/30 16:51:36;;;;;;;5.75;4.55;;;;;;;15.04;100.00;100387.72;10443744;28;20053;-70
2023/08/30 16:56:37;;;;;;;7.00;4.35;;;;;;;15.03;100.00;100391.66;10445232;28;20068;-70
2023/08/30 17:01:37;;;;;;;7.95;5.03;;;;;;;14.93;100.00;100392.59;10439696;28;20502;-70
2023/08/30 17:06:38;;;;;;;9.32;6.07;;;;;;;14.84;100.00;100387.97;10405120;28;20440;-70
2023/08/30 17:11:38;;;;;;;9.13;6.00;;;;;;;14.72;100.00;100386.44;10444607;28;20519;-71
2023/08/30 17:16:39;;;;;;;9.55;6.22;;;;;;;14.63;100.00;100388.19;10438160;28;20052;-70
2023/08/30 17:21:39;;;;;;;11.40;7.35;;;;;;;14.54;100.00;100401.03;10417008;28;20041;-70
2023/08/30 17:26:40;;;;;;;12.45;8.65;;;;;;;14.48;100.00;100391.09;10442507;28;20037;-70
2023/08/30 17:31:41;;;;;;;11.55;8.50;;;;;;;14.41;100.00;100404.50;10435551;28;20073;-71
2023/08/30 17:36:47;;;;;;;10.75;7.18;;;;;;;14.33;100.00;100414.25;10436944;28;20034;-71
2023/08/30 17:41:47;;;;;;;8.97;6.37;;;;;;;14.24;100.00;100414.03;10444857;28;20435;-71
2023/08/30 17:46:48;;;;;;;10.73;6.30;;;;;;;14.20;100.00;100420.44;10435792;28;20045;-70
2023/08/30 17:51:49;;;;;;;7.75;5.57;;;;;;;14.12;100.00;100416.38;10441542;28;20056;-70
2023/08/30 17:56:50;;;;;;;8.77;5.50;;;;;;;14.09;100.00;100428.00;10438734;28;20040;-71
2023/08/30 18:01:53;;;;;;;8.30;4.93;;;;;;;14.05;100.00;100435.22;10437068;28;20037;-70
2023/08/30 18:06:53;;;;;;;9.65;5.07;;;;;;;14.02;100.00;100433.06;10437394;28;20585;-71
2023/08/30 18:11:54;;;;;;;8.50;5.70;;;;;;;14.00;100.00;100421.44;10441060;28;20044;-71
2023/08/30 18:16:54;;;;;;;10.80;5.32;;;;;;;13.99;100.00;100428.06;10444123;28;20052;-69
2023/08/30 18:21:55;;;;;;;8.25;4.70;;;;;;;13.89;100.00;100424.28;10439448;28;20048;-71
2023/08/30 18:26:55;;;;;;;8.18;4.57;;;;;;;13.76;100.00;100429.63;10461483;28;20025;-71
2023/08/30 18:31:56;;;;;;;9.30;4.35;;;;;;;13.57;100.00;100437.75;10436746;28;20075;-70
2023/08/30 18:36:58;;;;;;;6.15;3.92;;;;;;;13.41;100.00;100429.53;10436663;28;20037;-71
2023/08/30 18:41:58;;;;;;;6.25;4.70;;;;;;;13.31;100.00;100441.47;10441547;28;20073;-70
2023/08/30 18:46:59;;;;;;;12.32;5.85;;;;;;;13.19;100.00;100438.19;10445701;28;20046;-70
2023/08/30 18:52:00;;;;;;;10.63;6.95;;;;;;;13.07;100.00;100435.72;10445276;28;20060;-70
2023/08/30 18:57:01;;;;;;;12.40;7.88;;;;;;;12.97;100.00;100441.28;10453160;28;20543;-70
2023/08/30 19:02:03;;;;;;;14.18;9.45;;;;;;;13.05;100.00;100435.19;10422808;28;20048;-70
2023/08/30 19:07:04;;;;;;;17.15;9.38;;;;;;;13.22;100.00;100445.09;10419791;28;20061;-70
2023/08/30 19:12:04;;;;;;;12.77;6.85;;;;;;;13.13;100.00;100448.44;10424191;28;20036;-70
2023/08/30 19:17:05;;;;;;;13.88;6.00;;;;;;;13.07;100.00;100440.44;10436624;28;20037;-69
2023/08/30 19:22:06;;;;;;;15.27;5.97;;;;;;;13.03;100.00;100439.34;10432550;28;20033;-70
2023/08/30 19:27:06;;;;;;;10.02;6.13;;;;;;;12.96;100.00;100445.19;10437046;28;20544;-71
2023/08/30 19:32:07;;;;;;;13.88;6.30;;;;;;;12.83;100.00;100435.53;10426079;28;20065;-72
2023/08/30 19:37:08;;;;;;;16.38;5.32;;;;;;;12.69;100.00;100440.81;10427816;28;20049;-67
2023/08/30 19:42:08;;;;;;;10.02;5.47;;;;;;;12.53;100.00;100453.00;10438649;28;20049;-70
2023/08/30 19:47:08;;;;;;;5.80;3.90;;;;;;;12.28;100.00;100446.38;10442875;28;20067;-70
2023/08/30 19:52:09;;;;;;;7.30;3.08;;;;;;;12.18;100.00;100465.69;10445051;28;20611;-70
2023/08/30 19:57:09;;;;;;;5.70;3.38;;;;;;;11.97;100.00;100461.25;10446817;28;20044;-70
2023/08/30 20:02:11;;;;;;;9.20;2.97;;;;;;;11.88;100.00;100475.56;10443988;28;20117;-69
2023/08/30 20:07:12;;;;;;;7.82;3.17;;;;;;;11.77;100.00;100482.16;10474180;28;20045;-70
2023/08/30 20:12:12;;;;;;;8.23;2.90;;;;;;;11.70;100.00;100478.84;10443739;28;20382;-70
2023/08/30 20:17:13;;;;;;;7.35;3.25;;;;;;;11.54;100.00;100486.22;10443618;28;20048;-69
2023/08/30 20:22:16;;;;;;;7.65;3.10;;;;;;;11.32;100.00;100489.97;10427077;28;20044;-69
2023/08/30 20:27:16;;;;;;;6.82;3.50;;;;;;;11.22;100.00;100503.69;10427189;28;20051;-70
2023/08/30 20:32:18;;;;;;;6.15;2.88;;;;;;;11.09;100.00;100496.75;10441666;28;20045;-70
2023/08/30 20:37:19;;;;;;;4.95;2.60;;;;;;;10.87;100.00;100488.66;10421220;28;20053;-70
2023/08/30 20:42:20;;;;;;;7.57;2.90;;;;;;;10.85;100.00;100506.50;10433472;28;20429;-70
2023/08/30 20:47:20;;;;;;;12.60;3.22;;;;;;;10.76;100.00;100508.13;10463309;28;20044;-69
2023/08/30 20:52:23;;;;;;;6.78;3.38;;;;;;;10.66;100.00;100504.19;10441581;28;20038;-69
2023/08/30 20:57:25;;;;;;;8.95;3.22;;;;;;;10.62;100.00;100500.28;10440596;28;20037;-70
2023/08/30 21:02:25;;;;;;;5.32;3.22;;;;;;;10.63;100.00;100493.72;10367133;28;20042;-70
2023/08/30 21:07:26;;;;;;;7.43;4.00;;;;;;;10.60;100.00;100510.75;10370988;28;20390;-70
2023/08/30 21:12:27;;;;;;;6.53;4.07;;;;;;;10.59;100.00;100509.09;10375968;28;20042;-69
2023/08/30 21:17:27;;;;;;;8.63;3.75;;;;;;;10.61;100.00;100514.34;10378617;28;20049;-69
2023/08/30 21:22:28;;;;;;;6.43;3.80;;;;;;;10.60;100.00;100521.75;10399624;28;20464;-69
2023/08/30 21:27:29;;;;;;;10.65;4.40;;;;;;;10.56;100.00;100497.78;10376796;28;20034;-70
2023/08/30 21:32:29;;;;;;;8.98;5.47;;;;;;;10.63;100.00;100518.50;10369730;28;20101;-70
2023/08/30 21:37:30;;;;;;;8.90;4.03;;;;;;;10.68;100.00;100507.50;10375834;28;20516;-70
2023/08/30 21:42:30;;;;;;;8.60;4.88;;;;;;;10.68;100.00;100514.94;10443765;28;20568;-71
2023/08/30 21:47:31;;;;;;;8.95;4.40;;;;;;;10.61;100.00;100506.91;10421849;28;20044;-70
2023/08/30 21:52:32;;;;;;;8.88;4.07;;;;;;;10.55;100.00;100507.97;10411848;28;20043;-70
2023/08/30 21:57:32;;;;;;;13.90;3.70;;;;;;;10.49;100.00;100512.59;10398915;28;20945;-70
2023/08/30 22:02:33;;;;;;;7.47;2.88;;;;;;;10.48;100.00;100516.44;10421347;28;20099;-70
2023/08/30 22:07:33;;;;;;;6.35;2.63;;;;;;;10.45;100.00;100516.97;10440176;28;20064;-70
2023/08/30 22:12:34;;;;;;;6.07;2.85;;;;;;;10.41;100.00;100517.75;10445126;28;20052;-70
2023/08/30 22:17:34;;;;;;;5.05;2.65;;;;;;;10.38;100.00;100523.78;10422894;28;20437;-70
2023/08/30 22:22:36;;;;;;;5.93;2.90;;;;;;;10.28;100.00;100508.81;10417501;28;20467;-70
2023/08/30 22:27:37;;;;;;;3.70;1.92;;;;;;;10.33;100.00;100512.72;10419256;28;20453;-70
2023/08/30 22:32:37;;;;;;;6.95;1.98;;;;;;;10.16;100.00;100499.06;10403476;28;20044;-69